Pewaukee, Wisconsin
Current Conditions -  °F | °C
As of 1:45 PM on Thursday 23 Oct 2014 (Local Time) from KUES Reporting Station
Clear Clear  
Wind Chill: 54°   Ceiling: Unl
Heat Index: 54°   Visibility: 10mi
Dew Point: 39°   Wind: 10mph
Humidity: 58%   Direction: 180°S
Pressure: 30.1"   Gusts: NA
Location:  43.08°N, 88.26°W
Report Text: KUES 231845Z 18009KT 10SM SKC 12/04 A3010
Loading
Personal Weather Stations






























Interactive Weather Map
Tropical Storm Tracking
New forecast layout! Learn more

10-Day Weather Forecast

Advertisements
Track Severe Weather on mobile